createdAt,value
2023-04-02T00:02:20.817Z,99785.06
2023-04-02T00:05:30.429Z,99777.00
2023-04-02T00:08:00.283Z,99778.59
2023-04-02T00:10:38.040Z,99784.19
2023-04-02T00:13:10.424Z,99777.91
2023-04-02T00:15:41.664Z,99783.75
2023-04-02T00:18:10.707Z,99785.91
2023-04-02T00:20:40.756Z,99791.16
2023-04-02T00:23:07.170Z,99794.44
2023-04-02T00:25:42.683Z,99795.91
2023-04-02T00:28:13.874Z,99792.66
2023-04-02T00:30:48.708Z,99793.00
2023-04-02T00:33:33.380Z,99782.88
2023-04-02T00:36:00.228Z,99794.19
2023-04-02T00:38:30.774Z,99795.53
2023-04-02T00:41:01.734Z,99801.56
2023-04-02T00:43:32.015Z,99803.25
2023-04-02T00:46:03.670Z,99811.03
2023-04-02T00:48:32.784Z,99811.72
2023-04-02T00:51:37.629Z,99811.50
2023-04-02T00:54:06.842Z,99809.72
2023-04-02T00:56:42.633Z,99808.38
2023-04-02T00:59:19.696Z,99813.91
2023-04-02T01:01:54.170Z,99801.84
2023-04-02T01:04:36.343Z,99800.63
2023-04-02T01:07:06.813Z,99799.84
2023-04-02T01:09:42.801Z,99796.25
2023-04-02T01:12:15.061Z,99806.88
2023-04-02T01:15:09.738Z,99807.13
2023-04-02T01:17:39.094Z,99806.78
2023-04-02T01:20:37.794Z,99809.91
2023-04-02T01:23:16.932Z,99806.88
2023-04-02T01:25:52.226Z,99810.47
2023-04-02T01:28:25.664Z,99813.28
2023-04-02T01:30:55.892Z,99817.63
2023-04-02T01:33:25.126Z,99814.50
2023-04-02T01:35:59.566Z,99816.97
2023-04-02T01:38:38.080Z,99819.09
2023-04-02T01:41:33.865Z,99812.25
2023-04-02T01:44:07.962Z,99816.63
2023-04-02T01:46:38.373Z,99820.19
2023-04-02T01:49:14.417Z,99820.41
2023-04-02T01:51:44.688Z,99825.56
2023-04-02T01:54:13.693Z,99827.91
2023-04-02T01:56:42.396Z,99839.75
2023-04-02T01:59:11.130Z,99843.97
2023-04-02T02:01:49.157Z,99844.78
2023-04-02T02:04:17.092Z,99847.72
2023-04-02T02:06:44.211Z,99850.06
2023-04-02T02:09:18.114Z,99852.75
2023-04-02T02:11:44.563Z,99855.63
2023-04-02T02:14:18.701Z,99860.44
2023-04-02T02:16:46.978Z,99857.97
2023-04-02T02:19:36.105Z,99868.41
2023-04-02T02:22:27.563Z,99872.53
2023-04-02T02:24:56.247Z,99877.75
2023-04-02T02:27:22.699Z,99893.09
2023-04-02T02:30:17.497Z,99898.00
2023-04-02T02:32:52.819Z,99904.06
2023-04-02T02:35:24.009Z,99904.47
2023-04-02T02:37:57.862Z,99909.28
2023-04-02T02:40:32.742Z,99908.13
2023-04-02T02:43:04.302Z,99916.25
2023-04-02T02:45:37.674Z,99918.91
2023-04-02T02:48:12.412Z,99923.78
2023-04-02T02:50:40.123Z,99930.94
2023-04-02T02:53:17.434Z,99931.41
2023-04-02T02:55:44.334Z,99941.84
2023-04-02T02:58:15.987Z,99945.41
2023-04-02T03:00:43.616Z,99958.13
2023-04-02T03:03:16.992Z,99957.31
2023-04-02T03:05:44.648Z,99964.75
2023-04-02T03:08:19.196Z,99963.66
2023-04-02T03:10:54.081Z,99965.69
2023-04-02T03:13:27.143Z,99966.81
2023-04-02T03:16:16.260Z,99965.06
2023-04-02T03:19:23.860Z,99961.47
2023-04-02T03:22:19.402Z,99963.75
2023-04-02T03:24:51.962Z,99967.06
2023-04-02T03:27:22.889Z,99964.25
2023-04-02T03:30:15.213Z,99969.03
2023-04-02T03:32:44.342Z,99967.84
2023-04-02T03:35:22.182Z,99963.22
2023-04-02T03:37:58.472Z,99969.69
2023-04-02T03:40:29.401Z,99971.81
2023-04-02T03:43:06.421Z,99979.22
2023-04-02T03:45:41.041Z,99980.03
2023-04-02T03:48:26.469Z,99982.59
2023-04-02T03:51:01.120Z,99987.72
2023-04-02T03:53:29.587Z,99990.28
2023-04-02T03:55:57.255Z,99997.16
2023-04-02T03:58:29.666Z,99991.63
2023-04-02T04:01:24.227Z,99991.16
2023-04-02T04:03:54.119Z,100001.41
2023-04-02T04:06:43.642Z,100002.81
2023-04-02T04:09:37.617Z,100011.53
2023-04-02T04:12:24.488Z,100010.91
2023-04-02T04:15:01.845Z,100022.06
2023-04-02T04:17:51.260Z,100019.13
2023-04-02T04:20:24.013Z,100019.34
2023-04-02T04:22:55.636Z,100026.78
2023-04-02T04:25:34.030Z,100029.63
2023-04-02T04:28:26.500Z,100036.28
2023-04-02T04:31:04.034Z,100038.97
2023-04-02T04:33:41.771Z,100042.97
2023-04-02T04:36:27.673Z,100046.56
2023-04-02T04:38:59.326Z,100056.44
2023-04-02T04:41:32.160Z,100059.00
2023-04-02T04:43:58.487Z,100062.97
2023-04-02T04:46:38.611Z,100066.28
2023-04-02T04:49:27.829Z,100066.53
2023-04-02T04:51:59.042Z,100075.94
2023-04-02T04:54:27.535Z,100079.00
2023-04-02T04:56:59.558Z,100079.03
2023-04-02T04:59:32.271Z,100085.94
2023-04-02T05:02:09.685Z,100090.72
2023-04-02T05:04:40.229Z,100093.28
2023-04-02T05:07:21.373Z,100100.94
2023-04-02T05:10:07.731Z,100100.59
2023-04-02T05:12:44.066Z,100106.88
2023-04-02T05:15:32.371Z,100115.88
2023-04-02T05:18:37.659Z,100107.50
2023-04-02T05:21:07.147Z,100109.97
2023-04-02T05:24:08.667Z,100112.78
2023-04-02T05:26:42.005Z,100123.28
2023-04-02T05:29:24.251Z,100118.69
2023-04-02T05:32:06.751Z,100115.09
2023-04-02T05:34:37.324Z,100124.72
2023-04-02T05:37:07.098Z,100125.34
2023-04-02T05:39:33.853Z,100129.16
2023-04-02T05:42:14.524Z,100135.06
2023-04-02T05:44:55.598Z,100138.69
2023-04-02T05:47:29.945Z,100144.84
2023-04-02T05:50:08.461Z,100137.66
2023-04-02T05:52:43.104Z,100144.88
2023-04-02T05:55:12.547Z,100152.28
2023-04-02T05:58:01.316Z,100149.97
2023-04-02T06:00:39.579Z,100153.28
2023-04-02T06:03:24.033Z,100156.38
2023-04-02T06:05:52.949Z,100152.81
2023-04-02T06:08:35.368Z,100161.81
2023-04-02T06:11:12.212Z,100156.94
2023-04-02T06:13:39.082Z,100156.19
2023-04-02T06:16:06.575Z,100154.78
2023-04-02T06:18:36.134Z,100154.00
2023-04-02T06:21:03.616Z,100149.75
2023-04-02T06:23:39.910Z,100144.19
2023-04-02T06:26:38.389Z,100136.19
2023-04-02T06:29:38.187Z,100161.03
2023-04-02T06:32:09.814Z,100193.44
2023-04-02T06:34:39.060Z,100197.66
2023-04-02T06:37:17.358Z,100205.00
2023-04-02T06:39:43.887Z,100188.91
2023-04-02T06:42:16.601Z,100189.84
2023-04-02T06:44:43.453Z,100179.38
2023-04-02T06:47:21.797Z,100179.56
2023-04-02T06:49:57.124Z,100177.91
2023-04-02T06:52:29.197Z,100184.28
2023-04-02T06:54:55.672Z,100179.81
2023-04-02T06:57:22.240Z,100192.38
2023-04-02T06:59:48.866Z,100205.50
2023-04-02T07:02:21.240Z,100213.97
2023-04-02T07:04:47.976Z,100217.66
2023-04-02T07:07:14.387Z,100228.75
2023-04-02T07:09:42.297Z,100232.13
2023-04-02T07:12:15.081Z,100236.75
2023-04-02T07:14:41.483Z,100238.94
2023-04-02T07:17:16.033Z,100245.88
2023-04-02T07:19:44.217Z,100250.88
2023-04-02T07:22:10.721Z,100254.13
2023-04-02T07:24:37.488Z,100260.44
2023-04-02T07:27:04.017Z,100256.00
2023-04-02T07:29:30.443Z,100256.22
2023-04-02T07:31:56.872Z,100257.03
2023-04-02T07:34:23.304Z,100263.84
2023-04-02T07:36:49.681Z,100263.66
2023-04-02T07:39:16.544Z,100266.84
2023-04-02T07:42:00.843Z,100267.91
2023-04-02T07:44:28.684Z,100273.44
2023-04-02T07:46:55.636Z,100282.34
2023-04-02T07:49:22.166Z,100286.47
2023-04-02T07:51:48.649Z,100292.06
2023-04-02T07:54:16.394Z,100289.44
2023-04-02T07:56:42.795Z,100283.25
2023-04-02T07:59:09.469Z,100276.97
2023-04-02T08:01:36.593Z,100277.66
2023-04-02T08:04:04.855Z,100278.78
2023-04-02T08:06:31.632Z,100292.84
2023-04-02T08:08:58.670Z,100295.16
2023-04-02T08:11:25.103Z,100286.19
2023-04-02T08:13:52.110Z,100289.34
2023-04-02T08:16:19.340Z,100296.75
2023-04-02T08:18:47.608Z,100308.88
2023-04-02T08:21:16.290Z,100321.13
2023-04-02T08:23:43.515Z,100316.97
2023-04-02T08:26:23.505Z,100318.16
2023-04-02T08:28:51.381Z,100325.91
2023-04-02T08:31:18.047Z,100322.44
2023-04-02T08:33:44.836Z,100331.31
2023-04-02T08:36:27.488Z,100334.47
2023-04-02T08:38:54.599Z,100333.91
2023-04-02T08:41:32.482Z,100342.00
2023-04-02T08:44:14.757Z,100335.94
2023-04-02T08:47:01.318Z,100341.19
2023-04-02T08:49:42.961Z,100339.88
2023-04-02T08:52:25.773Z,100332.53
2023-04-02T08:54:53.688Z,100342.00
2023-04-02T08:58:09.964Z,100339.84
2023-04-02T09:00:42.683Z,100342.09
2023-04-02T09:03:19.688Z,100345.19
2023-04-02T09:05:47.750Z,100351.31
2023-04-02T09:08:19.163Z,100350.28
2023-04-02T09:10:53.331Z,100357.13
2023-04-02T09:13:29.160Z,100356.72
2023-04-02T09:16:11.189Z,100360.06
2023-04-02T09:18:38.842Z,100364.91
2023-04-02T09:21:46.654Z,100369.94
2023-04-02T09:24:13.374Z,100372.75
2023-04-02T09:26:40.233Z,100373.00
2023-04-02T09:29:12.499Z,100381.03
2023-04-02T09:31:43.281Z,100372.13
2023-04-02T09:34:35.536Z,100378.72
2023-04-02T09:37:13.809Z,100381.16
2023-04-02T09:39:41.017Z,100378.94
2023-04-02T09:42:27.246Z,100383.25
2023-04-02T09:44:53.752Z,100387.16
2023-04-02T09:47:28.699Z,100392.53
2023-04-02T09:49:55.843Z,100387.53
2023-04-02T09:52:30.037Z,100392.84
2023-04-02T09:55:24.111Z,100387.56
2023-04-02T09:57:51.968Z,100386.69
2023-04-02T10:00:41.589Z,100382.03
2023-04-02T10:03:29.844Z,100392.25
2023-04-02T10:06:12.250Z,100388.84
2023-04-02T10:08:41.499Z,100393.88
2023-04-02T10:11:22.987Z,100390.53
2023-04-02T10:14:21.013Z,100397.31
2023-04-02T10:17:23.338Z,100396.28
2023-04-02T10:20:02.820Z,100391.94
2023-04-02T10:22:29.637Z,100399.28
2023-04-02T10:24:58.750Z,100398.41
2023-04-02T10:27:57.532Z,100391.94
2023-04-02T10:30:27.175Z,100394.63
2023-04-02T10:33:06.065Z,100396.19
2023-04-02T10:35:58.957Z,100395.38
2023-04-02T10:39:04.880Z,100384.91
2023-04-02T10:41:39.039Z,100381.88
2023-04-02T10:44:36.740Z,100394.03
2023-04-02T10:47:06.069Z,100384.84
2023-04-02T10:49:48.788Z,100384.47
2023-04-02T10:52:21.625Z,100380.09
2023-04-02T10:54:51.210Z,100391.72
2023-04-02T10:57:36.248Z,100390.66
2023-04-02T11:00:12.544Z,100383.38
2023-04-02T11:02:51.309Z,100384.91
2023-04-02T11:05:20.835Z,100389.06
2023-04-02T11:07:56.789Z,100386.03
2023-04-02T11:10:23.777Z,100390.72
2023-04-02T11:12:56.296Z,100385.69
2023-04-02T11:15:23.505Z,100383.50
2023-04-02T11:17:50.503Z,100391.22
2023-04-02T11:20:47.723Z,100385.97
2023-04-02T11:23:18.743Z,100374.88
2023-04-02T11:25:46.380Z,100375.84
2023-04-02T11:28:33.494Z,100365.44
2023-04-02T11:31:00.225Z,100373.34
2023-04-02T11:33:38.635Z,100369.03
2023-04-02T11:36:46.903Z,100368.31
2023-04-02T11:39:17.266Z,100367.78
2023-04-02T11:42:19.473Z,100364.69
2023-04-02T11:44:45.932Z,100366.69
2023-04-02T11:47:16.568Z,100361.50
2023-04-02T11:49:55.740Z,100346.47
2023-04-02T11:52:28.679Z,100346.47
2023-04-02T11:55:29.674Z,100355.59
2023-04-02T11:58:02.272Z,100344.66
2023-04-02T12:00:48.385Z,100353.72
2023-04-02T12:03:14.812Z,100354.97
2023-04-02T12:05:54.598Z,100352.13
2023-04-02T12:08:28.880Z,100349.19
2023-04-02T12:11:00.664Z,100354.31
2023-04-02T12:13:47.998Z,100350.22
2023-04-02T12:16:14.643Z,100357.69
2023-04-02T12:18:47.007Z,100350.38
2023-04-02T12:21:18.988Z,100345.69
2023-04-02T12:23:47.708Z,100349.91
2023-04-02T12:26:37.147Z,100346.72
2023-04-02T12:29:15.894Z,100345.09
2023-04-02T12:31:47.843Z,100340.59
2023-04-02T12:34:16.959Z,100342.06
2023-04-02T12:37:04.910Z,100341.25
2023-04-02T12:39:33.585Z,100339.91
2023-04-02T12:42:00.272Z,100331.06
2023-04-02T12:44:29.987Z,100334.31
2023-04-02T12:46:58.378Z,100324.25
2023-04-02T12:49:46.606Z,100325.13
2023-04-02T12:52:16.656Z,100331.69
2023-04-02T12:54:52.793Z,100333.13
2023-04-02T12:57:40.229Z,100328.75
2023-04-02T13:00:22.324Z,100332.03
2023-04-02T13:03:01.668Z,100323.28
2023-04-02T13:05:42.708Z,100324.16
2023-04-02T13:08:41.540Z,100316.19
2023-04-02T13:11:08.865Z,100325.47
2023-04-02T13:13:40.294Z,100316.16
2023-04-02T13:16:09.920Z,100314.94
2023-04-02T13:18:38.144Z,100314.44
2023-04-02T13:21:25.767Z,100308.16
2023-04-02T13:23:54.083Z,100307.56
2023-04-02T13:26:26.517Z,100316.03
2023-04-02T13:29:02.359Z,100302.31
2023-04-02T13:31:30.901Z,100295.34
2023-04-02T13:33:58.789Z,100294.59
2023-04-02T13:36:26.050Z,100299.41
2023-04-02T13:38:52.708Z,100294.72
2023-04-02T13:41:21.446Z,100292.09
2023-04-02T13:43:50.007Z,100292.66
2023-04-02T13:46:22.125Z,100297.09
2023-04-02T13:48:53.175Z,100302.47
2023-04-02T13:51:20.918Z,100298.22
2023-04-02T13:53:49.764Z,100297.25
2023-04-02T13:56:16.613Z,100292.50
2023-04-02T13:58:43.183Z,100300.69
2023-04-02T14:01:10.129Z,100290.84
2023-04-02T14:03:37.957Z,100301.81
2023-04-02T14:06:19.045Z,100303.91
2023-04-02T14:08:59.573Z,100297.47
2023-04-02T14:11:42.633Z,100289.22
2023-04-02T14:14:21.458Z,100294.88
2023-04-02T14:17:14.880Z,100285.47
2023-04-02T14:20:12.447Z,100288.50
2023-04-02T14:23:00.885Z,100299.34
2023-04-02T14:26:03.643Z,100284.66
2023-04-02T14:28:49.248Z,100300.28
2023-04-02T14:31:31.557Z,100296.22
2023-04-02T14:34:39.331Z,100287.25
2023-04-02T14:37:08.335Z,100286.56
2023-04-02T14:39:47.230Z,100278.16
2023-04-02T14:42:22.421Z,100285.63
2023-04-02T14:45:01.207Z,100288.66
2023-04-02T14:48:24.794Z,100285.34
2023-04-02T14:50:55.758Z,100293.72
2023-04-02T14:53:39.199Z,100289.50
2023-04-02T14:56:08.131Z,100289.88
2023-04-02T14:58:38.482Z,100284.22
2023-04-02T15:01:21.714Z,100288.00
2023-04-02T15:03:53.100Z,100291.97
2023-04-02T15:06:25.620Z,100297.19
2023-04-02T15:09:09.599Z,100290.94
2023-04-02T15:11:40.486Z,100292.00
2023-04-02T15:14:30.017Z,100291.56
2023-04-02T15:16:56.522Z,100287.91
2023-04-02T15:19:22.946Z,100286.69
2023-04-02T15:22:19.215Z,100284.41
2023-04-02T15:24:54.017Z,100278.00
2023-04-02T15:27:35.699Z,100286.75
2023-04-02T15:30:25.503Z,100282.84
2023-04-02T15:32:55.944Z,100281.91
2023-04-02T15:35:43.955Z,100280.94
2023-04-02T15:38:23.278Z,100277.97
2023-04-02T15:41:07.738Z,100278.78
2023-04-02T15:43:37.260Z,100278.88
2023-04-02T15:46:27.216Z,100285.81
2023-04-02T15:48:56.449Z,100285.31
2023-04-02T15:51:26.464Z,100290.75
2023-04-02T15:53:55.884Z,100291.63
2023-04-02T15:57:10.127Z,100293.94
2023-04-02T15:59:36.475Z,100289.38
2023-04-02T16:02:25.861Z,100297.84
2023-04-02T16:05:26.141Z,100296.44
2023-04-02T16:07:55.620Z,100303.34
2023-04-02T16:10:37.991Z,100300.56
2023-04-02T16:13:23.150Z,100311.91
2023-04-02T16:16:03.426Z,100310.13
2023-04-02T16:18:40.446Z,100310.63
2023-04-02T16:21:07.640Z,100317.06
2023-04-02T16:23:38.495Z,100312.59
2023-04-02T16:26:21.889Z,100307.38
2023-04-02T16:29:14.904Z,100319.56
2023-04-02T16:32:04.551Z,100318.56
2023-04-02T16:35:01.957Z,100320.03
2023-04-02T16:37:49.358Z,100322.13
2023-04-02T16:40:34.768Z,100319.69
2023-04-02T16:43:11.317Z,100324.88
2023-04-02T16:45:37.718Z,100324.63
2023-04-02T16:48:19.457Z,100324.22
2023-04-02T16:51:01.970Z,100329.41
2023-04-02T16:54:01.018Z,100330.28
2023-04-02T16:56:47.648Z,100336.31
2023-04-02T16:59:27.265Z,100342.41
2023-04-02T17:02:15.750Z,100343.91
2023-04-02T17:04:57.285Z,100352.34
2023-04-02T17:07:30.242Z,100344.94
2023-04-02T17:10:11.405Z,100343.56
2023-04-02T17:12:46.028Z,100344.75
2023-04-02T17:15:28.577Z,100346.00
2023-04-02T17:18:01.646Z,100341.63
2023-04-02T17:20:28.901Z,100347.31
2023-04-02T17:22:56.108Z,100345.19
2023-04-02T17:25:30.522Z,100346.91
2023-04-02T17:27:57.173Z,100357.00
2023-04-02T17:30:44.322Z,100355.84
2023-04-02T17:33:16.195Z,100378.66
2023-04-02T17:35:49.297Z,100375.88
2023-04-02T17:38:39.657Z,100385.47
2023-04-02T17:41:21.126Z,100389.19
2023-04-02T17:44:03.125Z,100391.88
2023-04-02T17:46:58.846Z,100397.56
2023-04-02T17:49:39.846Z,100408.25
2023-04-02T17:52:17.962Z,100409.56
2023-04-02T17:55:02.508Z,100407.28
2023-04-02T17:57:52.450Z,100410.78
2023-04-02T18:00:45.552Z,100406.19
2023-04-02T18:03:36.211Z,100410.78
2023-04-02T18:06:21.026Z,100421.56
2023-04-02T18:09:11.767Z,100425.59
2023-04-02T18:11:53.365Z,100432.84
2023-04-02T18:14:38.490Z,100427.19
2023-04-02T18:17:13.967Z,100428.59
2023-04-02T18:19:53.935Z,100432.53
2023-04-02T18:22:37.425Z,100437.34
2023-04-02T18:25:39.813Z,100442.41
2023-04-02T18:28:30.561Z,100447.88
2023-04-02T18:31:36.055Z,100446.56
2023-04-02T18:34:29.187Z,100450.16
2023-04-02T18:37:28.532Z,100463.91
2023-04-02T18:40:22.759Z,100469.56
2023-04-02T18:42:55.348Z,100472.53
2023-04-02T18:45:34.501Z,100471.34
2023-04-02T18:48:28.881Z,100473.25
2023-04-02T18:50:55.444Z,100467.66
2023-04-02T18:53:25.335Z,100480.41
2023-04-02T18:56:03.879Z,100479.97
2023-04-02T18:58:49.413Z,100479.56
2023-04-02T19:01:21.264Z,100479.69
2023-04-02T19:03:53.244Z,100485.88
2023-04-02T19:06:28.685Z,100481.50
2023-04-02T19:09:00.834Z,100485.31
2023-04-02T19:11:31.819Z,100493.66
2023-04-02T19:14:07.172Z,100497.28
2023-04-02T19:17:02.010Z,100495.06
2023-04-02T19:19:35.764Z,100498.09
2023-04-02T19:22:26.106Z,100500.69
2023-04-02T19:25:20.660Z,100512.97
2023-04-02T19:28:05.567Z,100514.22
2023-04-02T19:30:47.232Z,100519.19
2023-04-02T19:33:45.242Z,100521.66
2023-04-02T19:36:42.112Z,100523.44
2023-04-02T19:39:32.998Z,100530.19
2023-04-02T19:42:18.091Z,100529.31
2023-04-02T19:44:48.409Z,100534.22
2023-04-02T19:47:17.156Z,100532.44
2023-04-02T19:49:44.171Z,100532.66
2023-04-02T19:52:10.663Z,100542.25
2023-04-02T19:54:38.464Z,100539.41
2023-04-02T19:57:05.923Z,100549.53
2023-04-02T19:59:32.504Z,100542.78
2023-04-02T20:01:59.037Z,100546.16
2023-04-02T20:04:25.619Z,100555.16
2023-04-02T20:06:52.273Z,100559.53
2023-04-02T20:09:18.711Z,100556.06
2023-04-02T20:11:45.491Z,100548.88
2023-04-02T20:14:11.948Z,100551.13
2023-04-02T20:16:38.781Z,100555.38
2023-04-02T20:19:05.401Z,100556.53
2023-04-02T20:21:37.938Z,100559.53
2023-04-02T20:24:06.703Z,100563.00
2023-04-02T20:26:34.763Z,100561.22
2023-04-02T20:29:01.514Z,100559.59
2023-04-02T20:31:28.132Z,100562.63
2023-04-02T20:33:56.551Z,100556.22
2023-04-02T20:36:24.635Z,100561.84
2023-04-02T20:38:51.735Z,100563.09
2023-04-02T20:41:19.486Z,100561.16
2023-04-02T20:43:46.007Z,100563.81
2023-04-02T20:46:13.049Z,100564.69
2023-04-02T20:48:40.627Z,100564.66
2023-04-02T20:51:09.354Z,100571.41
2023-04-02T20:53:37.194Z,100566.41
2023-04-02T20:56:11.997Z,100574.44
2023-04-02T20:58:39.769Z,100575.28
2023-04-02T21:01:16.777Z,100578.38
2023-04-02T21:03:46.289Z,100584.66
2023-04-02T21:06:14.920Z,100578.31
2023-04-02T21:08:41.648Z,100586.97
2023-04-02T21:11:09.121Z,100588.25
2023-04-02T21:13:36.991Z,100588.41
2023-04-02T21:16:05.780Z,100593.66
2023-04-02T21:18:32.248Z,100596.19
2023-04-02T21:21:03.970Z,100598.31
2023-04-02T21:23:31.547Z,100598.38
2023-04-02T21:26:00.220Z,100593.16
2023-04-02T21:28:27.450Z,100604.28
2023-04-02T21:31:20.526Z,100605.88
2023-04-02T21:33:49.822Z,100612.69
2023-04-02T21:36:18.346Z,100608.19
2023-04-02T21:38:46.995Z,100606.44
2023-04-02T21:41:24.650Z,100610.09
2023-04-02T21:43:51.323Z,100607.25
2023-04-02T21:46:21.144Z,100611.38
2023-04-02T21:48:48.891Z,100612.69
2023-04-02T21:51:26.879Z,100612.47
2023-04-02T21:53:54.211Z,100610.66
2023-04-02T21:56:27.664Z,100604.88
2023-04-02T21:58:55.268Z,100607.31
2023-04-02T22:01:27.640Z,100609.63
2023-04-02T22:03:56.287Z,100609.91
2023-04-02T22:06:24.859Z,100605.78
2023-04-02T22:09:00.290Z,100615.06
2023-04-02T22:11:30.422Z,100615.06
2023-04-02T22:13:57.747Z,100612.75
2023-04-02T22:16:27.224Z,100607.97
2023-04-02T22:18:56.186Z,100614.56
2023-04-02T22:21:26.539Z,100613.38
2023-04-02T22:23:53.072Z,100611.97
2023-04-02T22:26:21.395Z,100605.78
2023-04-02T22:28:47.835Z,100616.97
2023-04-02T22:31:20.514Z,100609.03
2023-04-02T22:33:47.778Z,100605.28
2023-04-02T22:36:15.893Z,100612.63
2023-04-02T22:38:42.609Z,100617.25
2023-04-02T22:41:10.344Z,100609.63
2023-04-02T22:43:37.705Z,100613.53
2023-04-02T22:46:05.579Z,100613.66
2023-04-02T22:48:32.345Z,100612.75
2023-04-02T22:50:58.891Z,100612.22
2023-04-02T22:53:25.794Z,100613.00
2023-04-02T22:55:52.774Z,100613.13
2023-04-02T22:58:20.771Z,100614.56
2023-04-02T23:00:48.408Z,100604.22
2023-04-02T23:03:14.834Z,100604.47
2023-04-02T23:05:42.459Z,100602.19
2023-04-02T23:08:09.091Z,100599.59
2023-04-02T23:10:35.950Z,100595.09
2023-04-02T23:13:02.594Z,100597.53
2023-04-02T23:15:29.004Z,100594.06
2023-04-02T23:17:55.528Z,100596.63
2023-04-02T23:20:21.983Z,100595.25
2023-04-02T23:22:48.394Z,100588.53
2023-04-02T23:25:14.852Z,100592.03
2023-04-02T23:27:41.779Z,100592.41
2023-04-02T23:30:08.682Z,100583.13
2023-04-02T23:32:35.440Z,100594.72
2023-04-02T23:35:01.954Z,100587.75
2023-04-02T23:37:28.380Z,100595.19
2023-04-02T23:39:54.777Z,100593.38
2023-04-02T23:42:21.241Z,100602.50
2023-04-02T23:44:47.701Z,100593.13
2023-04-02T23:47:14.103Z,100597.00
2023-04-02T23:49:42.111Z,100586.84
2023-04-02T23:52:08.507Z,100584.66
2023-04-02T23:54:34.895Z,100584.75
2023-04-02T23:57:01.385Z,100578.03
2023-04-02T23:59:28.085Z,100575.22
